Terminal Aerodrome Forecast
Issued by NWS

Home | Current Version | Previous Version | Text Only | Print | Product List | Glossary Off
Versions: 1 2 3 4 5 6 7 8 9 10 11 12 13 14 15 16 17 18

875
FTUS43 KBIS 261134
TAFJMS
TAF
KJMS 261134Z 2612/2712 06009KT 3SM BR OVC003
      TEMPO 2612/2615 1SM BR OVC002
     FM261600 07011KT P6SM OVC008
     FM261800 07012KT P6SM OVC015
     FM262100 08012KT P6SM OVC025
     FM270100 07009KT P6SM OVC035=

USA.gov is the U.S. government's official web portal to all federal, state and local government web resources and services.